Time;durP1;ratioP1;P1;durP2;ratioP2;P2;SDS_P1;SDS_P2;PMS_P1;PMS_P2;Temp;Humidity;BMP_temperature;BMP_pressure;BME280_temperature;BME280_humidity;BME280_pressure;Samples;Min_cycle;Max_cycle;Signal;HPM_P1;HPM_P2
2022/12/09 11:52:26;;;;;;;16.37;6.30;;;2.40;99.90;;;;;;4143414;23;20275;-74
2022/12/09 11:55:03;;;;;;;12.73;5.80;;;2.20;99.90;;;;;;4895044;29;20248;-74
2022/12/09 11:57:34;;;;;;;12.40;5.67;;;2.20;99.90;;;;;;4897559;29;20206;-72
2022/12/09 12:00:05;;;;;;;20.33;6.30;;;2.20;99.90;;;;;;4874698;29;20242;-73
2022/12/09 12:02:37;;;;;;;8.90;4.37;;;2.20;99.90;;;;;;4877761;29;20578;-73
2022/12/09 12:05:15;;;;;;;12.57;5.20;;;2.20;99.90;;;;;;4879031;29;20231;-73
2022/12/09 12:07:47;;;;;;;10.87;4.73;;;2.30;99.90;;;;;;4878762;29;20223;-73
2022/12/09 12:10:22;;;;;;;10.20;5.40;;;2.20;99.90;;;;;;4879231;29;20221;-73
2022/12/09 12:12:59;;;;;;;10.83;4.97;;;2.10;99.90;;;;;;4879169;29;20217;-72
2022/12/09 12:15:32;;;;;;;12.10;4.97;;;1.80;99.90;;;;;;4879346;29;20597;-73
2022/12/09 12:18:02;;;;;;;13.97;5.63;;;1.60;99.90;;;;;;4878792;29;20216;-73
2022/12/09 12:20:39;;;;;;;11.50;5.27;;;1.70;99.90;;;;;;4879107;29;20211;-73
2022/12/09 12:23:22;;;;;;;11.10;5.23;;;1.80;99.90;;;;;;4879325;29;20565;-73
2022/12/09 12:25:55;;;;;;;11.10;4.80;;;1.50;99.90;;;;;;4879444;29;20298;-73
2022/12/09 12:28:47;;;;;;;12.80;4.97;;;1.30;99.90;;;;;;4878712;29;20231;-72
2022/12/09 12:31:29;;;;;;;9.67;4.60;;;1.10;99.90;;;;;;4878995;29;20207;-73
2022/12/09 12:34:09;;;;;;;12.90;5.13;;;1.20;99.90;;;;;;4879043;29;20210;-73
2022/12/09 12:36:45;;;;;;;15.63;5.37;;;1.60;99.90;;;;;;4878946;29;20257;-73
2022/12/09 12:39:26;;;;;;;8.63;4.47;;;1.50;99.90;;;;;;4878941;29;20347;-73
2022/12/09 12:42:00;;;;;;;10.90;4.80;;;1.30;99.90;;;;;;4879239;29;20213;-73
2022/12/09 12:47:32;;;;;;;14.00;4.40;;;1.50;99.90;;;;;;4878892;29;20214;-73
2022/12/09 12:50:50;;;;;;;13.93;4.60;;;1.50;99.90;;;;;;4879254;29;20321;-73
2022/12/09 12:53:27;;;;;;;11.43;4.30;;;1.50;99.90;;;;;;4821665;29;20232;-72
2022/12/09 12:55:59;;;;;;;11.90;3.77;;;1.40;99.90;;;;;;4877615;29;20243;-73
2022/12/09 12:58:55;;;;;;;9.13;3.97;;;1.70;99.90;;;;;;4878578;29;20321;-74
2022/12/09 13:01:29;;;;;;;9.20;4.03;;;1.90;99.90;;;;;;4878874;29;20219;-73
2022/12/09 13:04:03;;;;;;;11.47;4.93;;;1.80;99.90;;;;;;4878889;29;20570;-74
2022/12/09 13:06:39;;;;;;;11.17;5.23;;;1.80;99.90;;;;;;4879232;29;20315;-74
2022/12/09 13:09:12;;;;;;;11.00;4.83;;;1.90;99.90;;;;;;4878549;29;20661;-71
2022/12/09 13:11:53;;;;;;;10.50;3.47;;;2.00;99.90;;;;;;4878871;29;20238;-72
2022/12/09 13:14:24;;;;;;;10.77;4.40;;;2.00;99.90;;;;;;4878715;29;20214;-72
2022/12/09 13:16:52;;;;;;;10.33;4.67;;;1.70;99.90;;;;;;4878715;29;20689;-73
2022/12/09 13:19:24;;;;;;;13.73;5.17;;;1.70;99.90;;;;;;4878712;29;20245;-73
2022/12/09 13:21:52;;;;;;;14.53;5.83;;;1.80;99.90;;;;;;4878706;29;20211;-73
2022/12/09 13:24:26;;;;;;;12.20;5.10;;;2.10;99.90;;;;;;4879164;29;20222;-72
2022/12/09 13:27:00;;;;;;;12.60;5.37;;;2.20;99.90;;;;;;4882284;29;20207;-72
2022/12/09 13:29:41;;;;;;;9.50;5.10;;;2.30;99.90;;;;;;4881799;29;20237;-72
2022/12/09 13:32:23;;;;;;;17.10;6.40;;;2.50;99.90;;;;;;4881914;29;20226;-72
2022/12/09 13:34:53;;;;;;;14.53;5.77;;;2.40;99.90;;;;;;4881819;29;20222;-72
2022/12/09 13:37:56;;;;;;;8.87;6.03;;;2.30;99.90;;;;;;4882035;29;20222;-72
2022/12/09 13:40:34;;;;;;;11.50;5.70;;;2.00;99.90;;;;;;4869933;29;20213;-73
2022/12/09 13:43:11;;;;;;;14.47;6.87;;;2.20;99.90;;;;;;4882230;29;20229;-73
2022/12/09 13:45:51;;;;;;;13.53;5.43;;;2.20;99.90;;;;;;4881797;29;20298;-73
2022/12/09 13:48:44;;;;;;;16.17;6.53;;;2.20;99.90;;;;;;4881806;29;20231;-73
2022/12/09 13:51:11;;;;;;;23.57;7.37;;;2.30;99.90;;;;;;4881563;29;20260;-73
2022/12/09 13:53:44;;;;;;;14.37;5.67;;;2.40;99.90;;;;;;4881331;29;20219;-73
2022/12/09 13:56:24;;;;;;;16.23;6.20;;;2.20;99.90;;;;;;4881190;29;20713;-73
2022/12/09 13:59:23;;;;;;;14.77;6.00;;;2.00;99.90;;;;;;4881464;29;20237;-72
2022/12/09 14:01:53;;;;;;;18.90;6.30;;;2.10;99.90;;;;;;4881578;29;20211;-73
2022/12/09 14:04:24;;;;;;;16.27;5.47;;;2.10;99.90;;;;;;4881609;29;20309;-72
2022/12/09 14:06:57;;;;;;;27.50;6.67;;;2.30;99.90;;;;;;4881792;29;20218;-72
2022/12/09 14:09:32;;;;;;;16.93;5.73;;;2.40;99.90;;;;;;4881202;29;20257;-73
2022/12/09 14:12:00;;;;;;;15.93;7.07;;;2.40;99.90;;;;;;4881527;29;20581;-73
2022/12/09 14:14:56;;;;;;;13.90;5.73;;;2.50;99.90;;;;;;4881069;29;20243;-72
2022/12/09 14:17:59;;;;;;;16.17;6.43;;;2.50;99.90;;;;;;4881372;29;20239;-73
2022/12/09 14:20:32;;;;;;;18.47;7.13;;;2.50;99.90;;;;;;4880959;29;20217;-73
2022/12/09 14:23:17;;;;;;;14.57;6.27;;;2.50;99.90;;;;;;4881136;29;20215;-73
2022/12/09 14:26:01;;;;;;;15.40;6.87;;;2.60;99.90;;;;;;4881353;29;20215;-73
2022/12/09 14:28:52;;;;;;;19.40;6.57;;;2.70;99.90;;;;;;4880963;29;20702;-73
2022/12/09 14:32:05;;;;;;;15.80;6.47;;;2.80;99.90;;;;;;4881071;29;20552;-73
2022/12/09 14:34:37;;;;;;;13.63;6.63;;;3.00;99.90;;;;;;4881292;29;20211;-73
2022/12/09 14:37:41;;;;;;;15.70;6.43;;;2.90;99.90;;;;;;4880519;29;20249;-73
2022/12/09 14:40:52;;;;;;;14.67;5.80;;;2.90;99.90;;;;;;4880739;29;20304;-73
2022/12/09 14:43:49;;;;;;;12.63;5.00;;;2.90;99.90;;;;;;4853126;29;20211;-73
2022/12/09 14:46:23;;;;;;;13.00;7.13;;;2.70;99.90;;;;;;4875964;29;20250;-73
2022/12/09 14:48:54;;;;;;;15.20;6.63;;;2.40;99.90;;;;;;4880676;29;20238;-73
2022/12/09 14:51:27;;;;;;;14.30;5.73;;;2.00;99.90;;;;;;4880603;29;20227;-73
2022/12/09 14:53:58;;;;;;;7.73;3.83;;;2.30;99.90;;;;;;4880658;29;20215;-72
2022/12/09 14:56:26;;;;;;;9.17;4.53;;;2.20;99.90;;;;;;4880384;29;20238;-73
2022/12/09 14:58:56;;;;;;;8.13;4.03;;;2.10;99.90;;;;;;4880660;29;20700;-73
2022/12/09 15:01:23;;;;;;;9.47;4.43;;;2.00;99.90;;;;;;4880767;29;20214;-72
2022/12/09 15:03:55;;;;;;;9.43;4.60;;;2.10;99.90;;;;;;4880505;29;20211;-73
2022/12/09 15:06:25;;;;;;;16.77;5.50;;;2.40;99.90;;;;;;4880286;29;20642;-73
2022/12/09 15:08:55;;;;;;;12.30;4.97;;;2.50;99.90;;;;;;4880126;29;20242;-74
2022/12/09 15:11:25;;;;;;;13.07;4.97;;;2.60;99.90;;;;;;4879988;29;20593;-74
2022/12/09 15:13:55;;;;;;;10.93;5.67;;;2.50;99.90;;;;;;4880092;29;20659;-73
2022/12/09 15:16:25;;;;;;;12.87;5.97;;;2.30;99.90;;;;;;4880309;29;20916;-74
2022/12/09 15:18:54;;;;;;;14.83;6.60;;;2.10;99.90;;;;;;4880365;29;20247;-73
2022/12/09 15:21:29;;;;;;;13.10;5.93;;;2.10;99.90;;;;;;4882838;29;20306;-73
2022/12/09 15:23:57;;;;;;;13.83;6.30;;;2.30;99.90;;;;;;4887491;29;20275;-74
2022/12/09 15:26:26;;;;;;;14.03;6.00;;;2.40;99.90;;;;;;4892253;29;20298;-74
2022/12/09 15:28:55;;;;;;;15.70;6.87;;;2.50;99.90;;;;;;4886154;29;20227;-73
2022/12/09 15:31:25;;;;;;;16.23;6.87;;;2.60;99.90;;;;;;4880182;29;20211;-73
2022/12/09 15:33:56;;;;;;;16.57;7.47;;;2.50;99.90;;;;;;4879805;29;20659;-73
2022/12/09 15:36:28;;;;;;;16.50;6.43;;;2.50;99.90;;;;;;4879688;29;20243;-73
2022/12/09 15:38:59;;;;;;;21.50;7.40;;;2.50;99.90;;;;;;4879910;29;20368;-73
2022/12/09 15:44:19;;;;;;;13.23;5.80;;;2.20;99.90;;;;;;4879510;29;20210;-73
2022/12/09 15:46:48;;;;;;;19.17;7.13;;;2.40;99.90;;;;;;4878912;29;20222;-73
2022/12/09 15:49:21;;;;;;;16.37;6.73;;;2.50;99.90;;;;;;4879342;29;20238;-73
2022/12/09 15:51:52;;;;;;;19.70;7.40;;;2.50;99.90;;;;;;4879556;29;20305;-73
2022/12/09 15:54:26;;;;;;;18.53;7.80;;;2.50;99.90;;;;;;4879328;29;20575;-72
2022/12/09 15:56:56;;;;;;;16.83;6.70;;;2.60;99.90;;;;;;4879324;29;20261;-75
2022/12/09 15:59:28;;;;;;;17.97;6.60;;;2.50;99.90;;;;;;4879428;29;20231;-73
2022/12/09 16:01:58;;;;;;;15.90;7.40;;;2.50;99.90;;;;;;4879223;29;20215;-73
2022/12/09 16:04:28;;;;;;;17.87;7.13;;;2.50;99.90;;;;;;4879332;29;20574;-73
2022/12/09 16:07:03;;;;;;;16.30;6.27;;;2.30;99.90;;;;;;4879140;29;20215;-73
2022/12/09 16:09:30;;;;;;;17.13;7.00;;;2.40;99.90;;;;;;4879253;29;20596;-74
2022/12/09 16:11:57;;;;;;;16.53;6.83;;;2.40;99.90;;;;;;4879712;29;20570;-73
2022/12/09 16:14:24;;;;;;;16.17;6.20;;;2.20;99.90;;;;;;4879045;29;20306;-73
2022/12/09 16:16:55;;;;;;;15.90;6.47;;;2.20;99.90;;;;;;4879177;29;20270;-73
2022/12/09 16:19:27;;;;;;;21.80;7.10;;;2.30;99.90;;;;;;4879197;29;20241;-73
2022/12/09 16:21:57;;;;;;;19.53;7.43;;;2.30;99.90;;;;;;4879083;29;20559;-73
2022/12/09 16:24:25;;;;;;;16.77;7.60;;;2.40;99.90;;;;;;4879290;29;20214;-73
2022/12/09 16:26:54;;;;;;;14.20;6.50;;;2.40;99.90;;;;;;4879648;29;20562;-73
2022/12/09 16:29:27;;;;;;;16.17;6.60;;;2.50;99.90;;;;;;4879227;29;20238;-73
2022/12/09 16:32:20;;;;;;;16.53;7.13;;;2.40;99.90;;;;;;4879296;29;20245;-73
2022/12/09 16:34:49;;;;;;;18.07;6.80;;;2.30;99.90;;;;;;4879513;29;20207;-72
2022/12/09 16:37:35;;;;;;;22.30;7.00;;;2.30;99.90;;;;;;4879087;29;20245;-72
2022/12/09 16:40:42;;;;;;;19.30;7.57;;;2.30;99.90;;;;;;4878871;29;20241;-74
2022/12/09 16:43:20;;;;;;;18.23;7.43;;;2.40;99.90;;;;;;4879113;29;20214;-74
2022/12/09 16:45:49;;;;;;;15.47;6.63;;;2.50;99.90;;;;;;4879226;29;20211;-73
2022/12/09 16:48:17;;;;;;;17.93;8.00;;;2.50;99.90;;;;;;4879011;29;20699;-74
2022/12/09 16:50:50;;;;;;;15.33;7.73;;;2.50;99.90;;;;;;4872766;29;20235;-76
2022/12/09 16:53:20;;;;;;;15.07;6.83;;;2.60;99.90;;;;;;4873991;29;20325;-74
2022/12/09 16:55:52;;;;;;;16.07;7.03;;;2.70;99.90;;;;;;4869264;29;20690;-73
2022/12/09 16:58:19;;;;;;;12.10;5.80;;;2.70;99.90;;;;;;4877685;29;20241;-74
2022/12/09 17:00:46;;;;;;;15.37;6.93;;;2.50;99.90;;;;;;4880403;29;20233;-74
2022/12/09 17:03:21;;;;;;;13.10;5.80;;;2.50;99.90;;;;;;4880719;29;20207;-74
2022/12/09 17:05:49;;;;;;;18.20;7.23;;;2.50;99.90;;;;;;4880963;29;20305;-76
2022/12/09 17:08:18;;;;;;;17.67;6.67;;;2.40;99.90;;;;;;4879895;29;20226;-75
2022/12/09 17:10:44;;;;;;;19.30;7.13;;;2.30;99.90;;;;;;4880943;29;20221;-76
2022/12/09 17:13:12;;;;;;;17.93;7.70;;;2.30;99.90;;;;;;4880336;29;20665;-75
2022/12/09 17:15:40;;;;;;;17.40;7.00;;;2.30;99.90;;;;;;4880182;29;20242;-73
2022/12/09 17:18:08;;;;;;;15.87;7.00;;;2.30;99.90;;;;;;4880347;29;20210;-72
2022/12/09 17:20:35;;;;;;;18.00;6.77;;;2.40;99.90;;;;;;4880065;29;20484;-74
2022/12/09 17:23:01;;;;;;;21.47;7.77;;;2.40;99.90;;;;;;4879959;29;20297;-74
2022/12/09 17:25:32;;;;;;;17.00;6.90;;;2.40;99.90;;;;;;4880658;29;20214;-72
2022/12/09 17:28:01;;;;;;;17.83;8.20;;;2.40;99.90;;;;;;4880771;29;20230;-73
2022/12/09 17:30:28;;;;;;;16.80;6.37;;;2.30;99.90;;;;;;4879711;29;20211;-72
2022/12/09 17:32:55;;;;;;;14.87;6.63;;;2.40;99.90;;;;;;4880045;29;20225;-74
2022/12/09 17:35:22;;;;;;;19.90;6.47;;;2.30;99.90;;;;;;4880261;29;20684;-74
2022/12/09 17:37:49;;;;;;;22.23;6.70;;;2.20;99.90;;;;;;4879941;29;20728;-73
2022/12/09 17:40:16;;;;;;;15.30;6.80;;;2.30;99.90;;;;;;4880408;29;20690;-74
2022/12/09 17:42:44;;;;;;;14.43;6.57;;;2.30;99.90;;;;;;4880153;29;20245;-73
2022/12/09 17:45:11;;;;;;;18.97;6.50;;;2.30;99.90;;;;;;4880012;29;20728;-75
2022/12/09 17:47:39;;;;;;;22.10;6.73;;;2.20;99.90;;;;;;4880060;29;20658;-75
2022/12/09 17:50:06;;;;;;;19.90;6.97;;;2.10;99.90;;;;;;4891215;23;20266;-73
2022/12/09 17:52:33;;;;;;;16.67;6.73;;;2.10;99.90;;;;;;4878682;29;20294;-74
2022/12/09 17:55:00;;;;;;;12.67;4.93;;;1.80;99.90;;;;;;4879231;29;20219;-74
2022/12/09 17:57:27;;;;;;;15.70;5.57;;;1.80;99.90;;;;;;4878911;29;20356;-75
2022/12/09 17:59:55;;;;;;;15.73;6.53;;;1.80;99.90;;;;;;4880019;29;20233;-75
2022/12/09 18:02:22;;;;;;;15.17;5.80;;;1.90;99.90;;;;;;4880826;29;20213;-77
2022/12/09 18:04:48;;;;;;;13.13;5.70;;;2.00;99.90;;;;;;4880840;29;20207;-77
2022/12/09 18:07:15;;;;;;;14.57;5.67;;;2.10;99.90;;;;;;4881027;29;20211;-76
2022/12/09 18:09:42;;;;;;;11.27;4.93;;;2.00;99.90;;;;;;4880251;29;20227;-76
2022/12/09 18:12:09;;;;;;;17.23;6.27;;;1.90;99.90;;;;;;4880393;29;20891;-78
2022/12/09 18:14:36;;;;;;;16.57;6.50;;;1.70;99.90;;;;;;4881043;29;20221;-75
2022/12/09 18:17:04;;;;;;;18.60;5.83;;;1.70;99.90;;;;;;4880876;29;20241;-75
2022/12/09 18:19:34;;;;;;;17.07;6.20;;;1.70;99.90;;;;;;4880616;29;21872;-74
2022/12/09 18:22:00;;;;;;;10.63;5.33;;;1.60;99.90;;;;;;4880956;29;20208;-74
2022/12/09 18:24:29;;;;;;;19.17;6.53;;;1.40;99.90;;;;;;4880754;29;20271;-75
2022/12/09 18:26:56;;;;;;;17.77;7.57;;;1.50;99.90;;;;;;4880565;29;20214;-74
2022/12/09 18:29:23;;;;;;;12.93;4.93;;;1.60;99.90;;;;;;4863787;29;20238;-74
2022/12/09 18:31:54;;;;;;;17.00;6.87;;;1.20;99.90;;;;;;4865344;29;20216;-74
2022/12/09 18:34:23;;;;;;;16.27;6.13;;;1.10;99.90;;;;;;4872040;29;20226;-73
2022/12/09 18:36:50;;;;;;;15.77;5.43;;;1.30;99.90;;;;;;4880006;29;20235;-73
2022/12/09 18:39:16;;;;;;;12.63;5.23;;;1.40;99.90;;;;;;4874607;29;20310;-74
2022/12/09 18:41:44;;;;;;;15.43;5.83;;;1.50;99.90;;;;;;4876638;29;20225;-74
2022/12/09 18:44:13;;;;;;;13.27;5.37;;;1.60;99.90;;;;;;4875230;29;20203;-73
2022/12/09 18:46:44;;;;;;;15.90;6.60;;;1.80;99.90;;;;;;4875920;29;20214;-73
2022/12/09 18:49:12;;;;;;;20.03;6.80;;;1.80;99.90;;;;;;4874410;29;20241;-74
2022/12/09 18:51:42;;;;;;;17.47;6.53;;;1.90;99.90;;;;;;4866528;29;20219;-74
2022/12/09 18:54:11;;;;;;;17.37;6.70;;;1.90;99.90;;;;;;4873414;29;20250;-73
2022/12/09 18:56:37;;;;;;;13.67;6.87;;;1.90;99.90;;;;;;4874060;29;20242;-71
2022/12/09 18:59:04;;;;;;;16.27;6.30;;;1.80;99.90;;;;;;4872559;29;20237;-72
2022/12/09 19:01:32;;;;;;;15.63;5.80;;;1.80;99.90;;;;;;4879584;29;20222;-73
2022/12/09 19:04:02;;;;;;;15.70;6.30;;;1.70;99.90;;;;;;4879590;29;20215;-72
2022/12/09 19:06:30;;;;;;;11.70;5.93;;;1.80;99.90;;;;;;4867600;29;20229;-72
2022/12/09 19:09:01;;;;;;;16.53;5.93;;;1.80;99.90;;;;;;4878696;29;20242;-74
2022/12/09 19:11:29;;;;;;;18.10;6.10;;;1.80;99.90;;;;;;4879542;29;20218;-73
2022/12/09 19:13:57;;;;;;;16.53;6.00;;;1.60;99.90;;;;;;4879436;29;20211;-73
2022/12/09 19:16:24;;;;;;;17.70;6.83;;;1.60;99.90;;;;;;4879189;29;20226;-73
2022/12/09 19:18:52;;;;;;;17.13;6.33;;;1.60;99.90;;;;;;4875571;29;20235;-72
2022/12/09 19:21:21;;;;;;;15.27;6.17;;;1.50;99.90;;;;;;4864005;29;20207;-75
2022/12/09 19:23:48;;;;;;;16.90;6.53;;;1.30;99.90;;;;;;4868001;29;20208;-74
2022/12/09 19:26:18;;;;;;;15.60;5.70;;;1.40;99.90;;;;;;4873068;29;20559;-73
2022/12/09 19:28:47;;;;;;;15.77;5.60;;;1.30;99.90;;;;;;4871324;29;20235;-74
2022/12/09 19:31:15;;;;;;;12.87;6.03;;;0.90;99.90;;;;;;4867206;29;20297;-74
2022/12/09 19:33:42;;;;;;;12.87;5.00;;;0.80;99.90;;;;;;4868840;29;20674;-74
2022/12/09 19:36:10;;;;;;;13.53;5.93;;;0.90;99.90;;;;;;4868844;29;20218;-73
2022/12/09 19:38:36;;;;;;;17.33;6.07;;;1.00;99.90;;;;;;4867887;29;20231;-73
2022/12/09 19:41:04;;;;;;;14.00;5.77;;;1.20;99.90;;;;;;4870291;29;20650;-73
2022/12/09 19:43:32;;;;;;;10.30;5.17;;;1.10;99.90;;;;;;4872509;29;20567;-73
2022/12/09 19:46:03;;;;;;;10.67;4.47;;;1.10;99.90;;;;;;4863743;29;20371;-73
2022/12/09 19:48:30;;;;;;;15.67;6.03;;;1.10;99.90;;;;;;4864426;29;20238;-74
2022/12/09 19:50:57;;;;;;;14.07;6.47;;;1.10;99.90;;;;;;4860798;29;20212;-74
2022/12/09 19:53:24;;;;;;;16.17;6.00;;;1.10;99.90;;;;;;4866885;29;20226;-73
2022/12/09 19:55:50;;;;;;;19.30;6.83;;;1.20;99.90;;;;;;4873123;29;20208;-74
2022/12/09 19:58:18;;;;;;;17.77;6.80;;;1.20;99.90;;;;;;4874758;29;20615;-74
2022/12/09 20:00:46;;;;;;;18.60;6.30;;;1.10;99.90;;;;;;4870189;29;20211;-75
2022/12/09 20:03:13;;;;;;;14.90;5.77;;;1.10;99.90;;;;;;4870996;29;20214;-74
2022/12/09 20:05:48;;;;;;;20.80;6.83;;;1.10;99.90;;;;;;4866735;29;20215;-74
2022/12/09 20:08:15;;;;;;;12.47;5.50;;;1.10;99.90;;;;;;4870349;29;20233;-74
2022/12/09 20:10:43;;;;;;;16.10;6.60;;;1.20;99.90;;;;;;4871071;29;20225;-74
2022/12/09 20:13:10;;;;;;;14.83;5.17;;;1.30;99.90;;;;;;4866823;29;20208;-72
2022/12/09 20:15:37;;;;;;;13.87;5.30;;;1.30;99.90;;;;;;4872858;29;20218;-74
2022/12/09 20:18:05;;;;;;;16.50;6.23;;;1.00;99.90;;;;;;4871892;29;20243;-74
2022/12/09 20:20:33;;;;;;;19.40;6.40;;;1.00;99.90;;;;;;4875876;29;20222;-74
2022/12/09 20:22:59;;;;;;;17.53;6.03;;;1.20;99.90;;;;;;4874107;29;20203;-75
2022/12/09 20:25:27;;;;;;;14.53;5.87;;;1.30;99.90;;;;;;4873773;29;20218;-74
2022/12/09 20:27:54;;;;;;;15.53;6.47;;;1.30;99.90;;;;;;4873179;29;20215;-74
2022/12/09 20:30:21;;;;;;;13.30;5.33;;;1.40;99.90;;;;;;4873490;29;20305;-73
2022/12/09 20:32:48;;;;;;;12.17;4.80;;;1.20;99.90;;;;;;4869931;29;20203;-74
2022/12/09 20:35:16;;;;;;;8.97;4.13;;;0.90;99.90;;;;;;4872594;29;20214;-74
2022/12/09 20:37:43;;;;;;;10.57;5.00;;;0.90;99.90;;;;;;4876446;29;20239;-74
2022/12/09 20:40:11;;;;;;;14.43;4.57;;;1.00;99.90;;;;;;4876438;29;20231;-74
2022/12/09 20:42:38;;;;;;;15.67;5.00;;;1.00;99.90;;;;;;4877745;29;20216;-74
2022/12/09 20:45:06;;;;;;;11.63;5.27;;;1.00;99.90;;;;;;4877903;29;20214;-74
2022/12/09 20:47:33;;;;;;;9.70;4.73;;;0.80;99.90;;;;;;4876369;29;20221;-74
2022/12/09 20:50:00;;;;;;;14.23;5.60;;;0.90;99.90;;;;;;4874400;29;20238;-74
2022/12/09 20:52:28;;;;;;;13.40;5.67;;;0.90;99.90;;;;;;4869627;29;20211;-74
2022/12/09 20:54:55;;;;;;;16.27;6.87;;;1.00;99.90;;;;;;4874885;29;20695;-74
2022/12/09 20:57:21;;;;;;;13.00;5.00;;;0.90;99.90;;;;;;4872762;29;20249;-74
2022/12/09 20:59:48;;;;;;;16.60;5.73;;;0.80;99.90;;;;;;4879095;29;20233;-72
2022/12/09 21:02:16;;;;;;;12.73;5.67;;;0.80;99.90;;;;;;4871402;29;20571;-74
2022/12/09 21:04:44;;;;;;;17.77;5.67;;;0.90;99.90;;;;;;4879376;29;20211;-74
2022/12/09 21:07:10;;;;;;;18.13;6.23;;;0.90;99.90;;;;;;4872989;29;20207;-74
2022/12/09 21:09:39;;;;;;;17.07;6.47;;;1.00;99.90;;;;;;4865519;29;20238;-73
2022/12/09 21:12:06;;;;;;;25.47;7.57;;;1.00;99.90;;;;;;4873482;29;20211;-74
2022/12/09 21:14:35;;;;;;;18.70;7.90;;;1.20;99.90;;;;;;4878655;29;20653;-74
2022/12/09 21:17:03;;;;;;;22.77;8.00;;;1.10;99.90;;;;;;4878416;29;20250;-74
2022/12/09 21:19:31;;;;;;;14.73;6.67;;;1.00;99.90;;;;;;4878516;29;20235;-74
2022/12/09 21:21:58;;;;;;;17.47;7.00;;;1.00;99.90;;;;;;4870654;29;20272;-74
2022/12/09 21:24:25;;;;;;;16.63;6.67;;;1.00;99.90;;;;;;4869208;29;20667;-75
2022/12/09 21:26:54;;;;;;;17.77;6.97;;;1.10;99.90;;;;;;4869515;29;20207;-74
2022/12/09 21:29:21;;;;;;;22.07;6.87;;;1.20;99.90;;;;;;4879104;29;20239;-74
2022/12/09 21:31:49;;;;;;;15.43;7.23;;;1.20;99.90;;;;;;4870353;29;20215;-74
2022/12/09 21:34:16;;;;;;;22.57;7.90;;;1.30;99.90;;;;;;4874497;29;20627;-74
2022/12/09 21:36:44;;;;;;;18.50;7.87;;;1.40;99.90;;;;;;4877389;29;20264;-74
2022/12/09 21:39:13;;;;;;;14.23;6.33;;;1.30;99.90;;;;;;4874849;29;20239;-74
2022/12/09 21:41:40;;;;;;;14.93;6.53;;;1.20;99.90;;;;;;4878358;29;20211;-74
2022/12/09 21:44:13;;;;;;;17.90;6.83;;;1.10;99.90;;;;;;4872267;29;20219;-74
2022/12/09 21:46:40;;;;;;;19.87;7.77;;;0.90;99.90;;;;;;4869856;29;20219;-73
2022/12/09 21:49:10;;;;;;;16.57;6.83;;;0.90;99.90;;;;;;4877234;29;20254;-74
2022/12/09 21:51:37;;;;;;;14.93;7.13;;;0.90;99.90;;;;;;4876216;29;20298;-73
2022/12/09 21:54:04;;;;;;;15.97;7.43;;;0.90;99.90;;;;;;4868890;29;20671;-73
2022/12/09 21:56:34;;;;;;;16.67;7.63;;;0.90;99.90;;;;;;4875703;29;20212;-73
2022/12/09 21:59:01;;;;;;;15.40;7.27;;;1.10;99.90;;;;;;4869572;29;20334;-74
2022/12/09 22:01:31;;;;;;;16.10;6.43;;;1.10;99.90;;;;;;4879366;29;20230;-74
2022/12/09 22:04:00;;;;;;;15.20;6.90;;;0.90;99.90;;;;;;4864138;29;20212;-74
2022/12/09 22:06:28;;;;;;;14.73;6.87;;;1.00;99.90;;;;;;4875073;29;20221;-74
2022/12/09 22:08:55;;;;;;;19.67;6.53;;;1.00;99.90;;;;;;4867422;29;20235;-74
